Time;durP1;ratioP1;P1;durP2;ratioP2;P2;SDS_P1;SDS_P2;PMS_P1;PMS_P2;Temp;Humidity;BMP_temperature;BMP_pressure;BME280_temperature;BME280_humidity;BME280_pressure;Samples;Min_cycle;Max_cycle;Signal;HPM_P1;HPM_P2
2022/02/24 00:00:48;;;;;;;;;4.75;3.25;;;;;18.27;38.67;101525.56;5098541;27;51188;-50
2022/02/24 00:03:13;;;;;;;;;6.25;4.25;;;;;18.27;38.89;101511.00;5098427;27;51074;-47
2022/02/24 00:05:38;;;;;;;;;4.25;4.25;;;;;18.27;38.85;101511.00;5098408;27;51072;-53
2022/02/24 00:08:04;;;;;;;;;6.00;5.00;;;;;18.27;38.83;101511.00;5098033;27;51086;-52
2022/02/24 00:10:29;;;;;;;;;4.00;4.00;;;;;18.27;38.94;101520.06;5098224;27;51053;-52
2022/02/24 00:12:55;;;;;;;;;5.00;5.00;;;;;18.26;38.80;101512.88;5098519;27;51256;-53
2022/02/24 00:15:20;;;;;;;;;5.50;4.75;;;;;18.26;38.92;101503.81;5098613;27;51082;-51
2022/02/24 00:17:45;;;;;;;;;4.75;4.00;;;;;18.27;38.85;101505.50;5098091;27;51012;-50
2022/02/24 00:20:12;;;;;;;;;7.50;6.50;;;;;18.26;38.90;101499.19;5098175;27;51094;-51
2022/02/24 00:22:38;;;;;;;;;5.50;4.25;;;;;18.26;38.88;101501.91;5098066;27;51062;-53
2022/02/24 00:25:04;;;;;;;;;5.25;4.00;;;;;18.26;38.96;101501.91;5098463;27;50969;-51
2022/02/24 00:27:30;;;;;;;;;5.25;5.00;;;;;18.25;38.74;101497.47;5097882;27;51854;-53
2022/02/24 00:29:55;;;;;;;;;4.00;4.00;;;;;18.27;39.04;101494.53;5085252;27;51047;-51
2022/02/24 00:32:21;;;;;;;;;6.25;4.50;;;;;18.26;38.96;101495.59;5077517;27;51131;-52
2022/02/24 00:34:46;;;;;;;;;5.00;5.00;;;;;18.26;38.75;101488.22;5076367;27;51087;-49
2022/02/24 00:37:13;;;;;;;;;5.00;4.00;;;;;18.26;38.99;101485.47;5077282;27;51182;-53
2022/02/24 00:39:38;;;;;;;;;6.25;6.25;;;;;18.25;38.68;101478.28;5077747;27;51399;-52
2022/02/24 00:42:04;;;;;;;;;3.50;3.50;;;;;18.26;38.91;101484.63;5077576;27;50989;-49
2022/02/24 00:44:29;;;;;;;;;6.00;4.50;;;;;18.26;38.91;101479.97;5078094;27;51203;-48
2022/02/24 00:46:54;;;;;;;;;6.00;4.75;;;;;18.26;39.09;101471.75;5077288;27;51885;-50
2022/02/24 00:49:22;;;;;;;;;6.75;6.25;;;;;18.26;38.99;101463.53;5077623;27;51044;-50
2022/02/24 00:51:48;;;;;;;;;4.00;4.00;;;;;18.26;38.84;101460.78;5075902;28;51167;-51
2022/02/24 00:54:14;;;;;;;;;6.75;4.75;;;;;18.26;38.75;101460.78;5077799;27;51486;-50
2022/02/24 00:56:40;;;;;;;;;8.00;5.25;;;;;18.25;38.93;101458.22;5077227;27;50989;-52
2022/02/24 00:59:05;;;;;;;;;4.25;4.25;;;;;18.26;39.15;101459.94;5077490;28;51029;-52
2022/02/24 01:01:30;;;;;;;;;5.75;4.50;;;;;18.26;39.09;101460.78;5077631;27;51062;-52
2022/02/24 01:03:56;;;;;;;;;6.00;4.50;;;;;18.26;39.08;101451.69;5077607;27;51051;-53
2022/02/24 01:06:21;;;;;;;;;5.00;4.25;;;;;18.26;38.68;101440.72;5076758;27;51753;-52
2022/02/24 01:08:46;;;;;;;;;4.50;4.50;;;;;18.26;38.91;101438.00;5077463;27;51091;-53
2022/02/24 01:11:12;;;;;;;;;3.00;3.00;;;;;18.26;39.04;101440.72;5077485;27;51640;-50
2022/02/24 01:13:37;;;;;;;;;5.00;4.00;;;;;18.26;39.09;101430.63;5077621;27;50960;-52
2022/02/24 01:16:03;;;;;;;;;5.75;5.75;;;;;18.25;39.15;101431.66;5076973;27;51552;-52
2022/02/24 01:18:29;;;;;;;;;5.25;4.50;;;;;18.25;39.04;101420.69;5077292;27;51127;-53
2022/02/24 01:20:55;;;;;;;;;6.00;5.00;;;;;18.25;39.16;101430.81;5076574;27;51213;-51
2022/02/24 01:23:21;;;;;;;;;4.25;4.00;;;;;18.25;39.21;101422.59;5077434;27;51011;-53
2022/02/24 01:25:46;;;;;;;;;3.00;3.00;;;;;18.25;39.14;101420.69;5076921;28;51114;-53
2022/02/24 01:28:12;;;;;;;;;5.25;5.00;;;;;18.24;39.04;101413.50;5076688;27;50977;-52
2022/02/24 01:30:37;;;;;;;;;4.75;4.00;;;;;18.25;39.23;101419.84;5095326;27;51203;-51
2022/02/24 01:33:03;;;;;;;;;4.00;2.75;;;;;18.25;39.02;101417.94;5097290;27;50894;-51
2022/02/24 01:35:28;;;;;;;;;4.75;3.25;;;;;18.25;38.81;101420.69;5097095;27;51679;-52
2022/02/24 01:37:54;;;;;;;;;4.75;4.25;;;;;18.24;39.15;101410.78;5097004;27;51055;-53
2022/02/24 01:40:19;;;;;;;;;3.25;3.25;;;;;18.25;39.23;101409.72;5097453;27;51171;-50
2022/02/24 01:42:46;;;;;;;;;3.50;3.50;;;;;18.24;39.12;101408.03;5097408;27;51039;-53
2022/02/24 01:45:13;;;;;;;;;3.25;3.25;;;;;18.25;38.94;101406.13;5096894;27;51122;-49
2022/02/24 01:47:41;;;;;;;;;5.00;3.50;;;;;18.24;38.94;101404.44;5097617;27;51341;-53
2022/02/24 01:50:09;;;;;;;;;3.50;3.50;;;;;18.24;38.98;101399.81;5097101;27;51110;-53
2022/02/24 01:52:35;;;;;;;;;2.50;2.50;;;;;18.24;39.10;101401.69;5096969;27;51005;-53
2022/02/24 01:55:02;;;;;;;;;2.75;2.75;;;;;18.25;39.02;101409.72;5096888;27;51701;-50
2022/02/24 01:57:28;;;;;;;;;3.75;2.75;;;;;18.24;39.25;101405.28;5096890;27;51138;-51
2022/02/24 01:59:55;;;;;;;;;3.25;3.00;;;;;18.24;39.23;101408.03;5097040;27;51144;-53
2022/02/24 02:02:21;;;;;;;;;4.00;3.00;;;;;18.24;38.94;101407.19;5096573;27;51190;-52
2022/02/24 02:04:46;;;;;;;;;4.00;4.00;;;;;18.24;39.13;101380.59;5096993;27;51983;-53
2022/02/24 02:07:12;;;;;;;;;5.00;4.75;;;;;18.24;39.05;101366.88;5096243;27;51098;-49
2022/02/24 02:09:38;;;;;;;;;5.00;4.00;;;;;18.24;39.02;101349.59;5097016;27;51163;-53
2022/02/24 02:12:04;;;;;;;;;2.50;2.50;;;;;18.24;38.93;101352.34;5096871;27;51220;-53
2022/02/24 02:14:30;;;;;;;;;4.50;3.00;;;;;18.23;39.09;101358.84;5096584;27;53331;-53
2022/02/24 02:16:58;;;;;;;;;4.00;3.00;;;;;18.23;39.18;101356.94;5096811;27;51478;-52
2022/02/24 02:19:23;;;;;;;;;3.75;3.00;;;;;18.23;39.27;101358.84;5096825;27;51061;-52
2022/02/24 02:21:49;;;;;;;;;4.75;2.75;;;;;18.23;39.04;101350.59;5096300;27;51329;-48
2022/02/24 02:24:14;;;;;;;;;4.75;3.25;;;;;18.24;39.13;101341.38;5096483;27;51728;-51
2022/02/24 02:26:40;;;;;;;;;5.00;3.00;;;;;18.23;39.23;101345.13;5096721;27;51103;-50
2022/02/24 02:29:11;;;;;;;;;3.25;3.00;;;;;18.22;39.11;101332.44;5091238;27;51575;-52
2022/02/24 02:31:37;;;;;;;;;3.75;3.00;;;;;18.22;39.58;101336.03;5076238;27;51060;-52
2022/02/24 02:34:11;;;;;;;;;3.75;3.00;;;;;18.23;39.25;101331.41;5076086;27;52263;-49
2022/02/24 02:36:39;;;;;;;;;3.00;3.00;;;;;18.23;39.38;101331.41;5075788;27;51031;-52
2022/02/24 02:39:05;;;;;;;;;3.50;2.75;;;;;18.21;39.33;101345.31;5076538;27;51394;-52
2022/02/24 02:41:32;;;;;;;;;5.00;4.00;;;;;18.22;39.38;101330.56;5076113;27;51451;-50
2022/02/24 02:44:00;;;;;;;;;4.50;3.00;;;;;18.22;39.28;101329.72;5075945;27;53124;-52
2022/02/24 02:46:25;;;;;;;;;4.00;2.75;;;;;18.22;39.08;101327.81;5076117;27;51345;-51
2022/02/24 02:48:50;;;;;;;;;4.00;4.00;;;;;18.22;39.43;101327.81;5076036;27;51017;-50
2022/02/24 02:51:16;;;;;;;;;2.75;2.50;;;;;18.22;39.18;101322.34;5075798;27;51315;-51
2022/02/24 02:53:42;;;;;;;;;3.25;2.25;;;;;18.23;39.09;101323.19;5075417;28;50953;-51
2022/02/24 02:56:07;;;;;;;;;6.00;5.00;;;;;18.20;39.34;101321.69;5075677;27;51059;-51
2022/02/24 02:58:32;;;;;;;;;3.75;3.75;;;;;18.22;39.44;101316.00;5075360;27;51261;-51
2022/02/24 03:00:58;;;;;;;;;4.00;2.00;;;;;18.22;39.50;101303.13;5076027;27;51265;-53
2022/02/24 03:03:24;;;;;;;;;4.00;3.25;;;;;18.21;39.24;101306.94;5075656;27;51038;-52
2022/02/24 03:05:53;;;;;;;;;4.75;3.00;;;;;18.20;39.44;101301.66;5075190;27;51383;-55
2022/02/24 03:08:19;;;;;;;;;2.75;2.25;;;;;18.21;39.26;101306.94;5075807;27;50975;-49
2022/02/24 03:10:45;;;;;;;;;7.00;4.25;;;;;18.21;39.10;101301.44;5075797;27;51112;-48
2022/02/24 03:13:10;;;;;;;;;3.00;3.00;;;;;18.19;39.08;101292.56;5075427;27;50937;-51
2022/02/24 03:15:35;;;;;;;;;2.75;2.75;;;;;18.20;39.25;101291.53;5078021;27;51026;-52
2022/02/24 03:18:01;;;;;;;;;3.50;3.25;;;;;18.20;39.33;101286.03;5079431;27;50997;-53
2022/02/24 03:20:31;;;;;;;;;2.75;2.00;;;;;18.21;39.16;101275.91;5078979;27;51161;-51
2022/02/24 03:22:57;;;;;;;;;4.00;3.25;;;;;18.20;39.16;101290.69;5077435;28;51189;-52
2022/02/24 03:25:23;;;;;;;;;2.25;2.25;;;;;18.18;39.08;101288.97;5079183;28;51328;-53
2022/02/24 03:27:48;;;;;;;;;4.50;2.25;;;;;18.18;39.31;101286.25;5079125;27;50999;-52
2022/02/24 03:30:14;;;;;;;;;3.50;3.50;;;;;18.19;39.11;101284.34;5094196;27;50936;-51
2022/02/24 03:32:39;;;;;;;;;2.00;2.00;;;;;18.20;39.26;101279.72;5098778;27;52716;-53
2022/02/24 03:35:05;;;;;;;;;3.50;2.50;;;;;18.19;39.21;101273.38;5099421;27;50993;-52
2022/02/24 03:37:30;;;;;;;;;4.50;4.00;;;;;18.18;39.34;101269.78;5099110;27;51043;-49
2022/02/24 03:39:56;;;;;;;;;3.75;3.00;;;;;18.18;39.08;101267.03;5099464;27;51203;-51
2022/02/24 03:42:23;;;;;;;;;4.00;2.00;;;;;18.17;39.27;101262.59;5099110;27;51186;-53
2022/02/24 03:44:48;;;;;;;;;3.50;3.00;;;;;18.18;39.25;101274.44;5099239;27;51181;-53
2022/02/24 03:47:13;;;;;;;;;2.25;2.25;;;;;18.18;39.14;101260.72;5099202;27;51127;-49
2022/02/24 03:49:39;;;;;;;;;3.50;2.25;;;;;18.17;38.98;101270.00;5099275;27;51241;-50
2022/02/24 03:52:04;;;;;;;;;2.50;2.00;;;;;18.18;39.30;101271.69;5098579;27;51726;-53
2022/02/24 03:54:30;;;;;;;;;4.00;3.00;;;;;18.17;39.12;101265.34;5099055;27;50988;-51
2022/02/24 03:56:55;;;;;;;;;3.75;2.75;;;;;18.17;39.23;101251.63;5099200;27;51056;-51
2022/02/24 03:59:20;;;;;;;;;4.00;3.00;;;;;18.17;39.56;101231.59;5099254;27;50994;-51
2022/02/24 04:01:46;;;;;;;;;2.25;2.25;;;;;18.17;39.15;101234.34;5098795;27;51782;-52
2022/02/24 04:04:12;;;;;;;;;4.25;3.50;;;;;18.17;39.11;101232.44;5098915;27;51062;-52
2022/02/24 04:06:38;;;;;;;;;2.50;2.00;;;;;18.17;39.09;101237.09;5098636;27;51182;-50
2022/02/24 04:09:03;;;;;;;;;2.00;2.00;;;;;18.17;39.46;101231.59;5099098;27;51055;-51
2022/02/24 04:11:29;;;;;;;;;3.75;3.75;;;;;18.17;39.37;101231.59;5098665;27;51146;-51
2022/02/24 04:13:54;;;;;;;;;2.75;2.75;;;;;18.17;39.28;101231.59;5098870;27;51046;-51
2022/02/24 04:16:19;;;;;;;;;2.25;2.25;;;;;18.17;39.17;101231.59;5098883;27;50985;-49
2022/02/24 04:18:45;;;;;;;;;2.25;2.25;;;;;18.16;38.96;101222.53;5098939;27;50959;-50
2022/02/24 04:21:10;;;;;;;;;3.00;2.00;;;;;18.16;39.19;101213.47;5097584;27;52648;-52
2022/02/24 04:23:35;;;;;;;;;1.50;1.50;;;;;18.16;39.28;101224.44;5097222;27;51104;-53
2022/02/24 04:26:01;;;;;;;;;4.00;1.50;;;;;18.15;39.38;101220.00;5098293;27;51013;-52
2022/02/24 04:28:26;;;;;;;;;3.75;2.75;;;;;18.16;39.16;101221.69;5098773;27;51387;-51
2022/02/24 04:30:51;;;;;;;;;3.50;2.25;;;;;18.14;39.37;101212.81;5077634;27;52652;-51
2022/02/24 04:33:17;;;;;;;;;1.75;1.75;;;;;18.14;39.25;101221.88;5077372;27;51051;-53
2022/02/24 04:35:42;;;;;;;;;4.00;2.25;;;;;18.15;39.20;101220.00;5077876;27;51036;-53
2022/02/24 04:38:07;;;;;;;;;3.00;2.00;;;;;18.16;39.13;101221.69;5078223;27;51015;-50
2022/02/24 04:40:33;;;;;;;;;4.25;3.00;;;;;18.15;38.98;101217.25;5077702;27;51158;-52
2022/02/24 04:42:58;;;;;;;;;2.25;2.25;;;;;18.15;39.27;101229.06;5077900;27;51104;-50
2022/02/24 04:45:24;;;;;;;;;3.00;2.00;;;;;18.15;39.33;101220.00;5077762;27;51079;-50
2022/02/24 04:47:49;;;;;;;;;3.75;2.00;;;;;18.14;39.27;101221.88;5078226;27;51349;-49
2022/02/24 04:50:15;;;;;;;;;2.00;2.00;;;;;18.15;39.06;101220.84;5077255;27;52560;-51
2022/02/24 04:52:41;;;;;;;;;2.00;2.00;;;;;18.14;39.00;101221.03;5077365;27;51040;-52
2022/02/24 04:55:08;;;;;;;;;4.00;2.00;;;;;18.14;39.24;101210.06;5077898;27;51011;-52
2022/02/24 04:57:33;;;;;;;;;3.25;3.00;;;;;18.13;39.34;101211.09;5077567;27;51299;-47
2022/02/24 04:59:59;;;;;;;;;2.00;2.00;;;;;18.15;38.94;101215.34;5077379;27;51127;-51
2022/02/24 05:02:24;;;;;;;;;3.00;2.00;;;;;18.14;39.20;101205.44;5077373;27;51116;-47
2022/02/24 05:04:50;;;;;;;;;2.00;2.00;;;;;18.14;39.20;101199.09;5077650;27;51009;-50
2022/02/24 05:07:16;;;;;;;;;4.50;3.00;;;;;18.12;39.26;101191.06;5075983;27;51077;-51
2022/02/24 05:09:42;;;;;;;;;4.25;3.00;;;;;18.13;39.22;101195.53;5077083;27;51132;-51
2022/02/24 05:12:08;;;;;;;;;3.50;2.50;;;;;18.13;39.12;101197.38;5077252;27;51105;-50
2022/02/24 05:14:34;;;;;;;;;4.25;1.50;;;;;18.13;38.98;101201.00;5077333;27;51118;-53
2022/02/24 05:16:59;;;;;;;;;3.00;2.25;;;;;18.13;38.82;101198.25;5077576;27;51081;-51
2022/02/24 05:19:25;;;;;;;;;1.75;1.75;;;;;18.13;39.05;101202.88;5076965;27;51710;-49
2022/02/24 05:21:50;;;;;;;;;3.50;2.00;;;;;18.13;38.99;101194.63;5076589;27;51204;-50
2022/02/24 05:24:16;;;;;;;;;2.00;2.00;;;;;18.12;39.18;101191.06;5077388;27;51320;-51
2022/02/24 05:26:41;;;;;;;;;3.00;1.00;;;;;18.13;39.11;101183.66;5077383;27;51119;-51
2022/02/24 05:29:07;;;;;;;;;2.00;2.00;;;;;18.11;38.99;101194.84;5082744;27;51737;-50
2022/02/24 05:31:32;;;;;;;;;2.00;2.00;;;;;18.12;39.14;101188.31;5097261;27;51019;-48
2022/02/24 05:33:58;;;;;;;;;3.50;2.00;;;;;18.12;38.96;101190.22;5097422;27;50981;-53
2022/02/24 05:36:23;;;;;;;;;2.00;2.00;;;;;18.11;38.93;101178.41;5097299;27;50959;-50
2022/02/24 05:38:48;;;;;;;;;3.00;2.00;;;;;18.11;38.97;101177.53;5096535;27;51138;-53
2022/02/24 05:41:14;;;;;;;;;5.00;3.00;;;;;18.11;39.05;101177.53;5097570;27;51197;-51
2022/02/24 05:43:39;;;;;;;;;2.00;2.00;;;;;18.11;39.07;101175.66;5097517;27;50999;-52
2022/02/24 05:46:04;;;;;;;;;1.00;1.00;;;;;18.10;38.72;101173.97;5097538;27;51087;-49
2022/02/24 05:48:30;;;;;;;;;2.00;2.00;;;;;18.11;38.99;101177.53;5096871;27;51907;-52
2022/02/24 05:50:55;;;;;;;;;1.00;1.00;;;;;18.11;39.05;101177.53;5096780;27;51094;-49
2022/02/24 05:53:20;;;;;;;;;1.00;1.00;;;;;18.11;39.03;101177.53;5097316;27;51048;-53
2022/02/24 05:55:46;;;;;;;;;3.00;2.00;;;;;18.11;38.91;101183.03;5097370;27;50938;-51
2022/02/24 05:58:11;;;;;;;;;3.00;2.00;;;;;18.10;39.11;101182.19;5096847;27;51904;-51
2022/02/24 06:00:36;;;;;;;;;2.25;1.50;;;;;18.09;38.75;101175.00;5096979;27;51059;-53
2022/02/24 06:03:02;;;;;;;;;3.50;1.00;;;;;18.09;38.89;101166.78;5097134;27;51164;-51
2022/02/24 06:05:27;;;;;;;;;1.00;0.75;;;;;18.08;38.95;101170.56;5097120;27;51008;-51
2022/02/24 06:07:53;;;;;;;;;2.25;1.00;;;;;18.09;38.73;101163.19;5096572;27;53461;-51
2022/02/24 06:10:18;;;;;;;;;5.25;2.75;;;;;18.09;38.79;101163.19;5096767;27;51098;-49
2022/02/24 06:12:44;;;;;;;;;1.75;1.75;;;;;18.08;38.70;101164.25;5095330;27;51257;-52
2022/02/24 06:15:10;;;;;;;;;4.00;2.00;;;;;18.09;38.99;101164.03;5096938;27;51282;-49
2022/02/24 06:17:36;;;;;;;;;3.50;2.00;;;;;18.08;38.63;101162.34;5096388;27;51751;-51
2022/02/24 06:20:03;;;;;;;;;1.00;1.00;;;;;18.08;38.58;101161.50;5096644;27;51063;-52
2022/02/24 06:22:29;;;;;;;;;7.00;1.50;;;;;18.08;38.86;101162.34;5095859;27;50992;-47
2022/02/24 06:24:54;;;;;;;;;2.00;2.00;;;;;18.08;38.69;101158.75;5097056;27;50953;-53
2022/02/24 06:27:19;;;;;;;;;2.00;2.00;;;;;18.07;38.62;101155.19;5096245;27;51040;-52
2022/02/24 06:29:45;;;;;;;;;3.00;2.00;;;;;18.06;38.64;101158.97;5085283;27;50952;-52
2022/02/24 06:32:13;;;;;;;;;3.00;3.00;;;;;18.07;38.83;101157.06;5075792;27;51079;-53
2022/02/24 06:34:41;;;;;;;;;1.50;1.50;;;;;18.07;38.72;101151.59;5075989;27;51202;-49
2022/02/24 06:37:07;;;;;;;;;3.00;1.25;;;;;18.07;38.87;101148.84;5075691;27;52367;-51
2022/02/24 06:39:33;;;;;;;;;1.50;1.50;;;;;18.07;38.76;101151.59;5075973;27;51149;-52
2022/02/24 06:41:59;;;;;;;;;1.00;1.00;;;;;18.07;38.96;101154.31;5075841;28;51004;-52
2022/02/24 06:44:24;;;;;;;;;1.75;1.50;;;;;18.06;38.80;101149.91;5076114;27;51405;-51
2022/02/24 06:46:49;;;;;;;;;1.25;1.25;;;;;18.05;38.77;101153.69;5075308;27;52650;-52
2022/02/24 06:49:15;;;;;;;;;5.75;3.25;;;;;18.06;38.89;101158.13;5077419;27;50969;-53
2022/02/24 06:51:40;;;;;;;;;4.00;4.00;;;;;18.06;38.68;101160.84;5079214;27;51051;-53
2022/02/24 06:54:05;;;;;;;;;2.00;2.00;;;;;18.05;38.58;101157.28;5078905;27;51008;-50
2022/02/24 06:56:31;;;;;;;;;2.00;2.00;;;;;18.05;38.62;101170.13;5073871;27;50982;-50
2022/02/24 06:58:56;;;;;;;;;2.25;2.00;;;;;18.05;38.55;101159.16;5079089;27;51112;-53
2022/02/24 07:01:22;;;;;;;;;2.00;2.00;;;;;18.05;38.51;101150.94;5079151;27;51193;-52
2022/02/24 07:03:47;;;;;;;;;1.75;1.75;;;;;18.04;38.65;101162.97;5079734;27;51078;-50
2022/02/24 07:06:12;;;;;;;;;4.00;2.00;;;;;18.04;38.61;101155.59;5078659;27;51799;-50
2022/02/24 07:08:39;;;;;;;;;2.00;2.00;;;;;18.04;38.49;101155.59;5079113;27;51059;-52
2022/02/24 07:11:04;;;;;;;;;2.00;2.00;;;;;18.04;38.89;101154.72;5078913;27;51208;-50
2022/02/24 07:13:30;;;;;;;;;3.00;3.00;;;;;18.05;38.61;101150.94;5079042;27;51360;-52
2022/02/24 07:15:55;;;;;;;;;3.50;2.00;;;;;18.04;38.79;101152.84;5078858;27;51047;-52
2022/02/24 07:18:20;;;;;;;;;3.50;2.00;;;;;18.03;38.44;101159.38;5079039;27;51018;-52
2022/02/24 07:20:46;;;;;;;;;2.50;2.50;;;;;18.04;38.56;101160.22;5078735;27;51237;-52
2022/02/24 07:23:13;;;;;;;;;3.25;2.00;;;;;18.04;38.44;101149.25;5079075;27;51017;-51
2022/02/24 07:25:38;;;;;;;;;2.00;2.00;;;;;18.04;38.57;101169.28;5078626;27;51131;-51
2022/02/24 07:28:04;;;;;;;;;3.75;2.00;;;;;18.03;38.79;101170.34;5078863;27;51091;-53
2022/02/24 07:30:29;;;;;;;;;5.00;2.75;;;;;18.03;38.45;101162.13;5095885;27;51068;-49
2022/02/24 07:32:54;;;;;;;;;3.00;1.50;;;;;18.04;38.58;101172.03;5099252;27;51092;-51
2022/02/24 07:35:20;;;;;;;;;2.25;2.25;;;;;18.02;38.73;101163.13;5098795;27;51888;-50
2022/02/24 07:37:45;;;;;;;;;2.00;2.00;;;;;18.03;38.55;101164.84;5098927;27;51121;-52
2022/02/24 07:40:11;;;;;;;;;2.50;2.50;;;;;18.03;38.63;101161.22;5099166;27;51008;-49
2022/02/24 07:42:36;;;;;;;;;2.25;2.00;;;;;18.04;38.55;101160.22;5099228;27;51103;-48
2022/02/24 07:45:07;;;;;;;;;4.00;2.00;;;;;18.03;38.48;101163.97;5098562;27;51050;-53
2022/02/24 07:47:33;;;;;;;;;2.00;1.75;;;;;18.03;38.74;101162.13;5098492;27;51153;-53
2022/02/24 07:49:59;;;;;;;;;4.00;3.75;;;;;18.04;38.61;101160.22;5099122;27;51234;-51
2022/02/24 07:52:25;;;;;;;;;2.00;2.00;;;;;18.03;38.66;101151.16;5098701;27;50986;-52
2022/02/24 07:54:50;;;;;;;;;3.00;2.75;;;;;18.02;38.69;101157.66;5098618;27;52535;-52
2022/02/24 07:57:16;;;;;;;;;2.25;2.25;;;;;18.02;38.35;101159.53;5098739;27;51019;-51
2022/02/24 07:59:41;;;;;;;;;4.00;1.75;;;;;18.02;38.34;101149.41;5098622;27;51094;-50
2022/02/24 08:02:07;;;;;;;;;3.25;2.00;;;;;18.02;38.38;101151.31;5098311;27;51078;-51
2022/02/24 08:04:32;;;;;;;;;4.25;2.00;;;;;18.02;38.41;101149.41;5098311;27;51028;-51
2022/02/24 08:06:57;;;;;;;;;1.75;1.00;;;;;18.02;38.61;101146.69;5098244;27;51094;-49
2022/02/24 08:09:23;;;;;;;;;3.75;2.75;;;;;18.02;38.39;101149.41;5098609;27;51062;-52
2022/02/24 08:12:38;;;;;;;;;5.75;2.50;;;;;18.03;38.56;101150.28;5098620;27;51127;-50
2022/02/24 08:14:37;;;;;;;;;3.50;1.75;;;;;18.03;38.49;101131.06;5097811;27;51518;-51
2022/02/24 08:17:04;;;;;;;;;3.50;3.00;;;;;18.02;38.46;101127.50;5098718;27;51081;-52
2022/02/24 08:19:29;;;;;;;;;4.00;2.50;;;;;18.04;38.57;101141.03;5098631;27;51192;-51
2022/02/24 08:21:54;;;;;;;;;3.00;2.25;;;;;18.04;38.20;101138.28;5097972;27;50981;-52
2022/02/24 08:24:20;;;;;;;;;4.75;2.75;;;;;18.03;38.31;101134.69;5096676;27;52631;-52
2022/02/24 08:26:45;;;;;;;;;3.25;2.00;;;;;18.04;38.66;101138.28;5098195;27;51067;-50
2022/02/24 08:29:11;;;;;;;;;3.00;2.00;;;;;18.04;38.53;101124.59;5091593;27;51491;-51
2022/02/24 08:31:37;;;;;;;;;2.00;2.00;;;;;18.04;38.44;101130.06;5077598;27;51287;-51
2022/02/24 08:34:02;;;;;;;;;3.25;3.00;;;;;18.04;38.49;101119.09;5077457;27;51144;-52
2022/02/24 08:36:28;;;;;;;;;3.75;3.00;;;;;18.04;38.34;101141.03;5077421;27;51016;-51
2022/02/24 08:38:53;;;;;;;;;2.50;2.00;;;;;18.04;38.34;101130.06;5077782;27;51250;-50
2022/02/24 08:41:19;;;;;;;;;2.00;1.75;;;;;18.04;38.33;101135.53;5077771;27;51013;-53
2022/02/24 08:43:44;;;;;;;;;2.00;1.75;;;;;18.04;38.21;101132.81;5077305;27;51418;-53
2022/02/24 08:46:09;;;;;;;;;2.25;2.25;;;;;18.04;38.49;101127.31;5077297;27;51124;-51
2022/02/24 08:48:35;;;;;;;;;3.25;3.00;;;;;18.04;38.48;101125.44;5077607;27;51080;-50
2022/02/24 08:51:00;;;;;;;;;1.25;1.00;;;;;18.05;38.16;101123.53;5077143;27;51351;-53
2022/02/24 08:53:25;;;;;;;;;3.75;2.75;;;;;18.04;38.42;101133.66;5077222;27;50997;-51
2022/02/24 08:55:51;;;;;;;;;4.00;2.00;;;;;18.04;38.39;101121.84;5077102;27;51157;-53
2022/02/24 08:58:16;;;;;;;;;2.00;2.00;;;;;18.04;38.45;101122.69;5077361;27;51286;-53
2022/02/24 09:00:47;;;;;;;;;2.75;1.75;;;;;18.05;38.28;101123.53;5077283;27;51360;-52
2022/02/24 09:03:13;;;;;;;;;1.00;1.00;;;;;18.05;38.23;101129.00;5076923;27;51758;-52
2022/02/24 09:05:38;;;;;;;;;2.00;2.00;;;;;18.04;38.54;101128.16;5076932;27;51125;-53
2022/02/24 09:08:04;;;;;;;;;3.00;2.00;;;;;18.05;38.53;101134.50;5077127;27;50974;-52
2022/02/24 09:10:31;;;;;;;;;3.00;3.00;;;;;18.05;38.37;101135.34;5077273;27;51151;-52
2022/02/24 09:12:56;;;;;;;;;3.50;1.75;;;;;18.05;38.31;101129.84;5075361;27;51886;-50
2022/02/24 09:15:22;;;;;;;;;2.00;2.00;;;;;18.05;38.12;101127.13;5077145;27;51094;-51
2022/02/24 09:17:48;;;;;;;;;2.75;2.50;;;;;18.05;38.22;101129.84;5077050;27;50938;-51
2022/02/24 09:20:13;;;;;;;;;2.50;2.50;;;;;18.04;38.50;101122.69;5076966;27;51196;-49
2022/02/24 09:22:38;;;;;;;;;3.50;3.00;;;;;18.04;38.46;101133.66;5076015;27;51312;-51
2022/02/24 09:25:05;;;;;;;;;1.00;1.00;;;;;18.04;38.38;101138.28;5076638;27;51094;-53
2022/02/24 09:27:30;;;;;;;;;1.25;1.25;;;;;18.04;38.49;101133.66;5076788;27;50982;-50
2022/02/24 09:29:56;;;;;;;;;2.00;2.00;;;;;18.04;38.38;101139.13;5089540;27;51338;-52
2022/02/24 09:32:22;;;;;;;;;2.00;1.00;;;;;18.04;38.50;101122.69;5096446;27;51088;-52
2022/02/24 09:34:47;;;;;;;;;1.75;1.75;;;;;18.05;38.24;101124.38;5096686;27;51070;-52
2022/02/24 09:37:12;;;;;;;;;3.00;3.00;;;;;18.06;38.51;101136.19;5096777;27;51192;-52
2022/02/24 09:39:38;;;;;;;;;3.00;1.75;;;;;18.05;38.27;101127.13;5097312;27;51336;-53
2022/02/24 09:42:03;;;;;;;;;2.50;2.00;;;;;18.07;38.34;101132.41;5095014;27;51053;-53
2022/02/24 09:44:29;;;;;;;;;2.50;2.50;;;;;18.07;38.30;101115.94;5096647;27;51082;-52
2022/02/24 09:46:55;;;;;;;;;2.25;2.25;;;;;18.07;38.44;101107.72;5096851;27;51094;-52
2022/02/24 09:49:25;;;;;;;;;0.50;0.50;;;;;18.07;38.61;101110.47;5097047;27;51257;-52
2022/02/24 09:51:51;;;;;;;;;1.25;1.25;;;;;18.07;38.18;101105.81;5096151;27;52352;-53
2022/02/24 09:54:16;;;;;;;;;2.00;2.00;;;;;18.09;38.30;101094.66;5096775;27;50988;-51
2022/02/24 09:56:43;;;;;;;;;1.50;1.50;;;;;18.08;38.11;101092.97;5096885;27;52344;-50
2022/02/24 09:59:09;;;;;;;;;1.25;1.25;;;;;18.09;38.37;101089.19;5096806;27;51123;-49
2022/02/24 10:01:38;;;;;;;;;1.25;1.25;;;;;18.11;38.21;101084.34;5096094;27;51819;-52
2022/02/24 10:04:04;;;;;;;;;3.50;2.00;;;;;18.12;38.51;101094.25;5095018;27;51334;-50
2022/02/24 10:06:32;;;;;;;;;1.75;1.25;;;;;18.13;38.65;101094.06;5096073;27;51021;-50
2022/02/24 10:08:58;;;;;;;;;2.00;1.00;;;;;18.14;38.48;101056.53;5096541;27;51002;-53
2022/02/24 10:11:27;;;;;;;;;1.25;1.25;;;;;18.15;38.41;101070.03;5095825;27;52985;-52
2022/02/24 10:13:57;;;;;;;;;1.50;1.50;;;;;18.17;38.39;101078.06;5096292;27;51249;-53
2022/02/24 10:16:23;;;;;;;;;1.00;1.00;;;;;18.20;38.21;101072.16;5096537;27;51005;-52
2022/02/24 10:18:49;;;;;;;;;0.75;0.75;;;;;18.23;38.52;101069.00;5096454;27;51372;-51
2022/02/24 10:21:17;;;;;;;;;2.00;2.00;;;;;18.26;37.98;101065.03;5095518;27;51752;-54
2022/02/24 10:23:44;;;;;;;;;3.00;1.25;;;;;18.28;38.38;101068.41;5095852;27;51055;-52
2022/02/24 10:26:12;;;;;;;;;4.00;1.25;;;;;18.29;38.42;101092.03;5095994;27;51059;-54
2022/02/24 10:28:42;;;;;;;;;3.00;1.00;;;;;18.32;38.18;101073.28;5094672;27;51314;-52
2022/02/24 10:31:17;;;;;;;;;1.50;1.50;;;;;18.36;38.37;101071.84;5075326;27;51138;-50
2022/02/24 10:33:49;;;;;;;;;1.00;1.00;;;;;18.38;38.23;101064.25;5075583;27;51263;-54
2022/02/24 10:36:25;;;;;;;;;4.75;1.00;;;;;18.42;38.18;101072.91;5074040;28;51059;-51
2022/02/24 10:39:09;;;;;;;;;1.25;1.00;;;;;18.45;38.03;101067.88;5075819;27;51031;-54
2022/02/24 10:41:35;;;;;;;;;2.50;1.00;;;;;18.47;38.09;101067.69;5074123;28;53996;-54
2022/02/24 10:44:20;;;;;;;;;1.00;1.00;;;;;18.47;38.11;101075.91;5075788;27;51117;-50
2022/02/24 10:47:10;;;;;;;;;2.00;2.00;;;;;18.49;37.97;101062.84;5075229;27;51098;-51
2022/02/24 10:49:40;;;;;;;;;1.50;1.00;;;;;18.50;38.19;101082.88;5075300;27;51155;-52
2022/02/24 10:52:17;;;;;;;;;2.00;2.00;;;;;18.50;38.05;101067.25;5074798;27;52740;-51
2022/02/24 10:54:44;;;;;;;;;1.50;1.50;;;;;18.50;38.09;101077.41;5074894;27;51147;-53
2022/02/24 10:57:14;;;;;;;;;1.75;1.75;;;;;18.51;38.07;101070.84;5075264;27;51136;-52
2022/02/24 10:59:40;;;;;;;;;0.00;0.00;;;;;18.51;37.86;101065.38;5075381;27;51068;-49
2022/02/24 11:02:06;;;;;;;;;0.50;0.50;;;;;18.53;37.96;101071.50;5074798;27;51167;-51
2022/02/24 11:04:31;;;;;;;;;1.00;1.00;;;;;18.54;38.15;101057.56;5075147;27;51028;-51
2022/02/24 11:06:57;;;;;;;;;2.25;1.25;;;;;18.55;38.05;101059.28;5074965;27;51088;-49
2022/02/24 11:09:22;;;;;;;;;2.25;1.00;;;;;18.56;38.06;101047.25;5075450;27;51281;-53
2022/02/24 11:11:50;;;;;;;;;1.00;1.00;;;;;18.59;38.03;101037.75;5074710;28;51599;-53
2022/02/24 11:14:16;;;;;;;;;2.00;1.50;;;;;18.58;38.03;101056.13;5074957;27;51339;-52
2022/02/24 11:16:45;;;;;;;;;0.75;0.75;;;;;18.61;37.90;101046.63;5074898;27;51179;-52
2022/02/24 11:19:10;;;;;;;;;2.00;1.00;;;;;18.62;38.02;101029.13;5075065;27;51181;-52